sensor_id;sensor_type;location;lat;lon;timestamp;P1;durP1;ratioP1;P2;durP2;ratioP2
9667;SDS011;4872;48.316;10.650;2023-06-22T04:08:30;13.40;;;9.90;;
9667;SDS011;4872;48.316;10.650;2023-06-22T04:10:56;11.70;;;10.03;;
9667;SDS011;4872;48.316;10.650;2023-06-22T04:13:23;12.30;;;9.97;;
9667;SDS011;4872;48.316;10.650;2023-06-22T04:15:50;14.60;;;10.87;;
9667;SDS011;4872;48.316;10.650;2023-06-22T04:18:17;13.10;;;10.40;;
9667;SDS011;4872;48.316;10.650;2023-06-22T04:20:43;14.77;;;10.33;;
9667;SDS011;4872;48.316;10.650;2023-06-22T04:23:11;12.67;;;9.40;;
9667;SDS011;4872;48.316;10.650;2023-06-22T04:25:39;12.90;;;9.83;;
9667;SDS011;4872;48.316;10.650;2023-06-22T04:28:06;15.87;;;10.47;;
9667;SDS011;4872;48.316;10.650;2023-06-22T04:30:37;15.93;;;9.63;;
9667;SDS011;4872;48.316;10.650;2023-06-22T04:33:11;12.57;;;9.23;;
9667;SDS011;4872;48.316;10.650;2023-06-22T04:35:38;13.93;;;9.73;;
9667;SDS011;4872;48.316;10.650;2023-06-22T04:38:06;12.20;;;9.50;;
9667;SDS011;4872;48.316;10.650;2023-06-22T04:40:33;14.43;;;9.87;;
9667;SDS011;4872;48.316;10.650;2023-06-22T04:43:01;15.20;;;9.37;;
9667;SDS011;4872;48.316;10.650;2023-06-22T04:45:28;14.07;;;9.60;;
9667;SDS011;4872;48.316;10.650;2023-06-22T04:47:55;11.70;;;9.00;;
9667;SDS011;4872;48.316;10.650;2023-06-22T04:50:22;14.57;;;9.30;;
9667;SDS011;4872;48.316;10.650;2023-06-22T04:52:49;15.03;;;9.20;;
9667;SDS011;4872;48.316;10.650;2023-06-22T04:55:16;12.93;;;8.47;;
9667;SDS011;4872;48.316;10.650;2023-06-22T04:57:45;13.90;;;10.30;;
9667;SDS011;4872;48.316;10.650;2023-06-22T05:00:15;14.53;;;10.10;;
9667;SDS011;4872;48.316;10.650;2023-06-22T05:02:43;15.87;;;9.87;;
9667;SDS011;4872;48.316;10.650;2023-06-22T05:05:11;12.20;;;9.17;;
9667;SDS011;4872;48.316;10.650;2023-06-22T05:07:39;15.17;;;9.97;;
9667;SDS011;4872;48.316;10.650;2023-06-22T05:10:08;12.20;;;8.70;;
9667;SDS011;4872;48.316;10.650;2023-06-22T05:12:36;14.23;;;8.67;;
9667;SDS011;4872;48.316;10.650;2023-06-22T05:15:03;12.93;;;9.67;;
9667;SDS011;4872;48.316;10.650;2023-06-22T05:17:31;10.50;;;9.00;;
9667;SDS011;4872;48.316;10.650;2023-06-22T05:19:58;11.73;;;8.93;;
9667;SDS011;4872;48.316;10.650;2023-06-22T05:22:25;13.17;;;8.63;;
9667;SDS011;4872;48.316;10.650;2023-06-22T05:24:52;11.87;;;8.67;;
9667;SDS011;4872;48.316;10.650;2023-06-22T05:27:18;10.50;;;8.20;;
9667;SDS011;4872;48.316;10.650;2023-06-22T05:29:45;11.10;;;8.03;;
9667;SDS011;4872;48.316;10.650;2023-06-22T05:32:12;11.17;;;7.70;;
9667;SDS011;4872;48.316;10.650;2023-06-22T05:34:40;15.43;;;8.47;;
9667;SDS011;4872;48.316;10.650;2023-06-22T05:37:06;13.33;;;7.97;;
9667;SDS011;4872;48.316;10.650;2023-06-22T05:39:34;11.50;;;8.50;;
9667;SDS011;4872;48.316;10.650;2023-06-22T05:42:03;11.27;;;8.23;;
9667;SDS011;4872;48.316;10.650;2023-06-22T05:44:30;12.80;;;8.20;;
9667;SDS011;4872;48.316;10.650;2023-06-22T05:46:58;13.57;;;8.63;;
9667;SDS011;4872;48.316;10.650;2023-06-22T05:49:25;11.07;;;7.87;;
9667;SDS011;4872;48.316;10.650;2023-06-22T05:51:56;10.97;;;7.77;;
9667;SDS011;4872;48.316;10.650;2023-06-22T05:54:22;11.50;;;8.17;;
9667;SDS011;4872;48.316;10.650;2023-06-22T05:56:49;11.67;;;8.03;;
9667;SDS011;4872;48.316;10.650;2023-06-22T05:59:16;10.10;;;8.53;;
9667;SDS011;4872;48.316;10.650;2023-06-22T06:01:43;12.97;;;7.73;;
9667;SDS011;4872;48.316;10.650;2023-06-22T06:04:14;10.83;;;7.77;;
9667;SDS011;4872;48.316;10.650;2023-06-22T06:06:41;12.37;;;8.07;;
9667;SDS011;4872;48.316;10.650;2023-06-22T06:09:09;11.97;;;7.83;;
9667;SDS011;4872;48.316;10.650;2023-06-22T06:11:36;10.67;;;7.23;;
9667;SDS011;4872;48.316;10.650;2023-06-22T06:14:03;10.33;;;7.57;;
9667;SDS011;4872;48.316;10.650;2023-06-22T06:16:30;12.03;;;8.17;;
9667;SDS011;4872;48.316;10.650;2023-06-22T06:18:57;10.90;;;7.37;;
9667;SDS011;4872;48.316;10.650;2023-06-22T06:21:23;10.00;;;7.97;;
9667;SDS011;4872;48.316;10.650;2023-06-22T06:23:50;9.70;;;7.43;;
9667;SDS011;4872;48.316;10.650;2023-06-22T06:26:19;11.30;;;8.00;;
9667;SDS011;4872;48.316;10.650;2023-06-22T06:28:55;9.63;;;7.40;;
9667;SDS011;4872;48.316;10.650;2023-06-22T06:31:23;11.40;;;7.80;;
9667;SDS011;4872;48.316;10.650;2023-06-22T06:33:53;11.77;;;7.30;;
9667;SDS011;4872;48.316;10.650;2023-06-22T06:36:20;10.20;;;7.30;;
9667;SDS011;4872;48.316;10.650;2023-06-22T06:38:47;10.17;;;7.37;;
9667;SDS011;4872;48.316;10.650;2023-06-22T06:41:14;8.57;;;6.90;;
9667;SDS011;4872;48.316;10.650;2023-06-22T06:43:43;10.50;;;6.70;;
9667;SDS011;4872;48.316;10.650;2023-06-22T06:46:10;12.97;;;6.40;;
9667;SDS011;4872;48.316;10.650;2023-06-22T06:48:36;7.17;;;5.93;;
9667;SDS011;4872;48.316;10.650;2023-06-22T06:51:04;11.40;;;6.80;;
9667;SDS011;4872;48.316;10.650;2023-06-22T06:53:35;9.60;;;6.67;;
9667;SDS011;4872;48.316;10.650;2023-06-22T06:56:01;9.87;;;6.87;;
9667;SDS011;4872;48.316;10.650;2023-06-22T06:58:30;9.80;;;6.10;;
9667;SDS011;4872;48.316;10.650;2023-06-22T07:00:58;8.70;;;6.73;;
9667;SDS011;4872;48.316;10.650;2023-06-22T07:03:25;8.40;;;6.67;;
9667;SDS011;4872;48.316;10.650;2023-06-22T07:05:51;11.60;;;7.03;;
9667;SDS011;4872;48.316;10.650;2023-06-22T07:08:18;10.07;;;6.37;;
9667;SDS011;4872;48.316;10.650;2023-06-22T07:10:45;9.57;;;6.80;;
9667;SDS011;4872;48.316;10.650;2023-06-22T07:13:11;8.20;;;6.23;;
9667;SDS011;4872;48.316;10.650;2023-06-22T07:15:38;10.97;;;6.30;;
9667;SDS011;4872;48.316;10.650;2023-06-22T07:18:06;12.60;;;6.37;;
9667;SDS011;4872;48.316;10.650;2023-06-22T07:20:33;10.97;;;7.27;;
9667;SDS011;4872;48.316;10.650;2023-06-22T07:23:00;9.90;;;6.63;;
9667;SDS011;4872;48.316;10.650;2023-06-22T07:25:27;12.07;;;6.50;;
9667;SDS011;4872;48.316;10.650;2023-06-22T07:27:58;14.37;;;7.30;;
9667;SDS011;4872;48.316;10.650;2023-06-22T07:30:26;13.47;;;6.73;;
9667;SDS011;4872;48.316;10.650;2023-06-22T07:32:53;10.33;;;6.73;;
9667;SDS011;4872;48.316;10.650;2023-06-22T07:35:21;10.30;;;7.20;;
9667;SDS011;4872;48.316;10.650;2023-06-22T07:37:48;10.80;;;7.10;;
9667;SDS011;4872;48.316;10.650;2023-06-22T07:40:15;12.17;;;7.07;;
9667;SDS011;4872;48.316;10.650;2023-06-22T07:42:41;9.40;;;6.50;;
9667;SDS011;4872;48.316;10.650;2023-06-22T07:45:08;11.33;;;6.40;;
9667;SDS011;4872;48.316;10.650;2023-06-22T07:47:35;14.20;;;7.40;;
9667;SDS011;4872;48.316;10.650;2023-06-22T07:50:02;11.73;;;7.50;;
9667;SDS011;4872;48.316;10.650;2023-06-22T07:52:31;13.07;;;6.77;;
9667;SDS011;4872;48.316;10.650;2023-06-22T07:54:58;10.17;;;6.07;;
9667;SDS011;4872;48.316;10.650;2023-06-22T07:57:25;11.63;;;6.67;;
9667;SDS011;4872;48.316;10.650;2023-06-22T07:59:58;9.87;;;5.87;;
9667;SDS011;4872;48.316;10.650;2023-06-22T08:02:25;13.67;;;6.80;;
9667;SDS011;4872;48.316;10.650;2023-06-22T08:04:51;8.10;;;6.47;;
9667;SDS011;4872;48.316;10.650;2023-06-22T08:07:18;9.17;;;6.47;;
9667;SDS011;4872;48.316;10.650;2023-06-22T08:09:47;10.43;;;6.57;;
9667;SDS011;4872;48.316;10.650;2023-06-22T08:12:14;10.03;;;7.10;;
9667;SDS011;4872;48.316;10.650;2023-06-22T08:14:42;10.40;;;6.80;;
9667;SDS011;4872;48.316;10.650;2023-06-22T08:17:11;11.40;;;7.10;;
9667;SDS011;4872;48.316;10.650;2023-06-22T08:19:39;11.70;;;6.87;;
9667;SDS011;4872;48.316;10.650;2023-06-22T08:22:06;12.03;;;6.90;;
9667;SDS011;4872;48.316;10.650;2023-06-22T08:24:33;13.03;;;8.13;;
9667;SDS011;4872;48.316;10.650;2023-06-22T08:27:01;9.60;;;6.83;;
9667;SDS011;4872;48.316;10.650;2023-06-22T08:29:27;12.27;;;6.70;;
9667;SDS011;4872;48.316;10.650;2023-06-22T08:31:54;11.10;;;6.20;;
9667;SDS011;4872;48.316;10.650;2023-06-22T08:34:21;12.13;;;6.67;;
9667;SDS011;4872;48.316;10.650;2023-06-22T08:36:48;12.83;;;7.60;;
9667;SDS011;4872;48.316;10.650;2023-06-22T08:39:16;12.87;;;7.60;;
9667;SDS011;4872;48.316;10.650;2023-06-22T08:41:43;12.73;;;7.53;;
9667;SDS011;4872;48.316;10.650;2023-06-22T08:44:11;15.80;;;7.37;;
9667;SDS011;4872;48.316;10.650;2023-06-22T08:46:38;14.40;;;7.07;;
9667;SDS011;4872;48.316;10.650;2023-06-22T08:49:05;10.93;;;7.47;;
9667;SDS011;4872;48.316;10.650;2023-06-22T08:51:33;12.30;;;7.50;;
9667;SDS011;4872;48.316;10.650;2023-06-22T08:54:00;10.20;;;7.27;;
9667;SDS011;4872;48.316;10.650;2023-06-22T08:56:26;14.00;;;7.60;;
9667;SDS011;4872;48.316;10.650;2023-06-22T08:58:53;13.63;;;7.17;;
9667;SDS011;4872;48.316;10.650;2023-06-22T09:01:21;11.07;;;6.30;;
9667;SDS011;4872;48.316;10.650;2023-06-22T09:03:48;10.77;;;7.13;;
9667;SDS011;4872;48.316;10.650;2023-06-22T09:06:20;8.67;;;6.57;;
9667;SDS011;4872;48.316;10.650;2023-06-22T09:08:47;12.40;;;7.23;;
9667;SDS011;4872;48.316;10.650;2023-06-22T09:11:14;9.97;;;6.67;;
9667;SDS011;4872;48.316;10.650;2023-06-22T09:13:40;12.57;;;7.03;;
9667;SDS011;4872;48.316;10.650;2023-06-22T09:16:07;11.93;;;7.20;;
9667;SDS011;4872;48.316;10.650;2023-06-22T09:18:35;8.97;;;6.70;;
9667;SDS011;4872;48.316;10.650;2023-06-22T09:21:02;10.93;;;6.83;;
9667;SDS011;4872;48.316;10.650;2023-06-22T09:23:29;10.67;;;7.67;;
9667;SDS011;4872;48.316;10.650;2023-06-22T09:25:56;11.83;;;6.90;;
9667;SDS011;4872;48.316;10.650;2023-06-22T09:28:22;11.80;;;6.97;;
9667;SDS011;4872;48.316;10.650;2023-06-22T09:30:50;11.37;;;7.13;;
9667;SDS011;4872;48.316;10.650;2023-06-22T09:33:21;9.67;;;6.93;;
9667;SDS011;4872;48.316;10.650;2023-06-22T09:35:49;11.40;;;7.30;;
9667;SDS011;4872;48.316;10.650;2023-06-22T09:38:16;9.17;;;6.67;;
9667;SDS011;4872;48.316;10.650;2023-06-22T09:40:43;11.50;;;7.83;;
9667;SDS011;4872;48.316;10.650;2023-06-22T09:43:10;12.87;;;7.17;;
9667;SDS011;4872;48.316;10.650;2023-06-22T09:45:37;13.97;;;7.33;;
9667;SDS011;4872;48.316;10.650;2023-06-22T09:48:04;12.13;;;7.30;;
9667;SDS011;4872;48.316;10.650;2023-06-22T09:50:31;10.10;;;7.50;;
9667;SDS011;4872;48.316;10.650;2023-06-22T09:52:59;11.30;;;7.20;;
9667;SDS011;4872;48.316;10.650;2023-06-22T09:55:26;10.13;;;6.53;;
9667;SDS011;4872;48.316;10.650;2023-06-22T09:57:55;12.27;;;6.83;;
9667;SDS011;4872;48.316;10.650;2023-06-22T10:00:22;8.93;;;7.27;;
9667;SDS011;4872;48.316;10.650;2023-06-22T10:02:48;11.77;;;7.17;;
9667;SDS011;4872;48.316;10.650;2023-06-22T10:05:15;13.30;;;7.50;;
9667;SDS011;4872;48.316;10.650;2023-06-22T10:07:42;12.27;;;7.73;;
9667;SDS011;4872;48.316;10.650;2023-06-22T10:10:10;11.87;;;7.73;;
9667;SDS011;4872;48.316;10.650;2023-06-22T10:12:40;11.47;;;7.70;;
9667;SDS011;4872;48.316;10.650;2023-06-22T10:15:09;9.90;;;7.53;;
9667;SDS011;4872;48.316;10.650;2023-06-22T10:17:36;8.10;;;6.70;;
9667;SDS011;4872;48.316;10.650;2023-06-22T10:20:03;11.53;;;7.17;;
9667;SDS011;4872;48.316;10.650;2023-06-22T10:22:36;10.73;;;7.07;;
9667;SDS011;4872;48.316;10.650;2023-06-22T10:25:03;9.97;;;7.20;;
9667;SDS011;4872;48.316;10.650;2023-06-22T10:27:31;11.73;;;7.77;;
9667;SDS011;4872;48.316;10.650;2023-06-22T10:29:58;11.40;;;6.87;;
9667;SDS011;4872;48.316;10.650;2023-06-22T10:32:24;12.43;;;7.73;;
9667;SDS011;4872;48.316;10.650;2023-06-22T10:34:53;10.97;;;6.87;;
9667;SDS011;4872;48.316;10.650;2023-06-22T10:37:19;9.90;;;6.93;;
9667;SDS011;4872;48.316;10.650;2023-06-22T10:39:46;12.53;;;7.77;;
9667;SDS011;4872;48.316;10.650;2023-06-22T10:42:13;10.67;;;7.63;;
9667;SDS011;4872;48.316;10.650;2023-06-22T10:44:41;9.07;;;7.23;;
9667;SDS011;4872;48.316;10.650;2023-06-22T10:47:09;11.18;;;7.32;;
9667;SDS011;4872;48.316;10.650;2023-06-22T10:49:37;11.18;;;7.47;;
9667;SDS011;4872;48.316;10.650;2023-06-22T10:52:04;11.82;;;8.25;;
9667;SDS011;4872;48.316;10.650;2023-06-22T10:54:32;10.48;;;7.78;;
9667;SDS011;4872;48.316;10.650;2023-06-22T10:56:59;13.48;;;8.85;;
9667;SDS011;4872;48.316;10.650;2023-06-22T10:59:26;12.45;;;9.18;;
9667;SDS011;4872;48.316;10.650;2023-06-22T11:01:55;12.88;;;8.60;;
9667;SDS011;4872;48.316;10.650;2023-06-22T11:04:22;13.88;;;8.82;;
9667;SDS011;4872;48.316;10.650;2023-06-22T11:06:49;13.13;;;8.35;;
9667;SDS011;4872;48.316;10.650;2023-06-22T11:09:16;13.35;;;8.60;;
9667;SDS011;4872;48.316;10.650;2023-06-22T11:11:46;14.15;;;10.27;;
9667;SDS011;4872;48.316;10.650;2023-06-22T11:14:13;17.98;;;9.38;;
9667;SDS011;4872;48.316;10.650;2023-06-22T11:16:39;11.88;;;8.07;;
9667;SDS011;4872;48.316;10.650;2023-06-22T11:19:07;15.45;;;9.13;;
9667;SDS011;4872;48.316;10.650;2023-06-22T11:21:34;14.52;;;8.68;;
9667;SDS011;4872;48.316;10.650;2023-06-22T11:24:01;17.13;;;8.52;;
9667;SDS011;4872;48.316;10.650;2023-06-22T11:26:28;10.68;;;7.28;;
9667;SDS011;4872;48.316;10.650;2023-06-22T11:28:57;12.73;;;8.77;;
9667;SDS011;4872;48.316;10.650;2023-06-22T11:31:24;11.52;;;8.52;;
9667;SDS011;4872;48.316;10.650;2023-06-22T11:33:50;15.60;;;8.65;;
9667;SDS011;4872;48.316;10.650;2023-06-22T11:36:19;17.77;;;8.18;;
9667;SDS011;4872;48.316;10.650;2023-06-22T11:38:45;13.93;;;8.52;;
9667;SDS011;4872;48.316;10.650;2023-06-22T11:41:12;15.00;;;9.93;;
9667;SDS011;4872;48.316;10.650;2023-06-22T11:43:39;15.40;;;7.25;;
9667;SDS011;4872;48.316;10.650;2023-06-22T11:46:06;14.43;;;8.63;;
9667;SDS011;4872;48.316;10.650;2023-06-22T11:48:33;12.88;;;7.72;;
9667;SDS011;4872;48.316;10.650;2023-06-22T11:50:59;13.90;;;8.23;;
9667;SDS011;4872;48.316;10.650;2023-06-22T11:53:29;12.40;;;7.38;;
9667;SDS011;4872;48.316;10.650;2023-06-22T11:55:56;10.30;;;7.28;;
9667;SDS011;4872;48.316;10.650;2023-06-22T11:58:23;14.32;;;8.02;;
9667;SDS011;4872;48.316;10.650;2023-06-22T12:00:49;13.40;;;7.72;;
9667;SDS011;4872;48.316;10.650;2023-06-22T12:03:17;11.18;;;7.18;;
9667;SDS011;4872;48.316;10.650;2023-06-22T12:05:43;12.90;;;7.57;;
9667;SDS011;4872;48.316;10.650;2023-06-22T12:08:10;11.38;;;7.20;;
9667;SDS011;4872;48.316;10.650;2023-06-22T12:10:40;10.35;;;7.97;;
9667;SDS011;4872;48.316;10.650;2023-06-22T12:13:06;11.07;;;6.75;;
9667;SDS011;4872;48.316;10.650;2023-06-22T12:15:33;15.13;;;7.78;;
9667;SDS011;4872;48.316;10.650;2023-06-22T12:18:00;12.15;;;7.30;;
9667;SDS011;4872;48.316;10.650;2023-06-22T12:20:27;14.18;;;7.15;;
9667;SDS011;4872;48.316;10.650;2023-06-22T12:22:54;11.38;;;7.18;;
9667;SDS011;4872;48.316;10.650;2023-06-22T12:25:23;11.75;;;7.43;;
9667;SDS011;4872;48.316;10.650;2023-06-22T12:27:51;11.57;;;7.22;;
9667;SDS011;4872;48.316;10.650;2023-06-22T12:30:18;12.88;;;7.93;;
9667;SDS011;4872;48.316;10.650;2023-06-22T12:32:45;12.55;;;7.47;;
9667;SDS011;4872;48.316;10.650;2023-06-22T12:35:12;19.52;;;7.57;;
9667;SDS011;4872;48.316;10.650;2023-06-22T12:37:40;16.33;;;7.60;;
9667;SDS011;4872;48.316;10.650;2023-06-22T12:40:07;15.13;;;8.20;;
9667;SDS011;4872;48.316;10.650;2023-06-22T12:42:35;13.77;;;7.72;;
9667;SDS011;4872;48.316;10.650;2023-06-22T12:45:03;10.88;;;7.00;;
9667;SDS011;4872;48.316;10.650;2023-06-22T12:47:31;13.07;;;7.13;;
9667;SDS011;4872;48.316;10.650;2023-06-22T12:49:57;12.40;;;7.70;;
9667;SDS011;4872;48.316;10.650;2023-06-22T12:52:24;14.95;;;7.80;;
9667;SDS011;4872;48.316;10.650;2023-06-22T12:54:51;16.30;;;8.07;;
9667;SDS011;4872;48.316;10.650;2023-06-22T12:57:19;12.55;;;7.50;;
9667;SDS011;4872;48.316;10.650;2023-06-22T12:59:46;13.88;;;7.20;;
9667;SDS011;4872;48.316;10.650;2023-06-22T13:02:14;12.93;;;7.85;;
9667;SDS011;4872;48.316;10.650;2023-06-22T13:04:41;11.23;;;7.45;;
9667;SDS011;4872;48.316;10.650;2023-06-22T13:07:08;12.65;;;7.63;;
9667;SDS011;4872;48.316;10.650;2023-06-22T13:09:35;11.52;;;7.70;;
9667;SDS011;4872;48.316;10.650;2023-06-22T13:12:03;13.82;;;7.45;;
9667;SDS011;4872;48.316;10.650;2023-06-22T13:14:30;11.40;;;8.25;;
9667;SDS011;4872;48.316;10.650;2023-06-22T13:16:56;15.60;;;7.45;;
9667;SDS011;4872;48.316;10.650;2023-06-22T13:19:24;18.00;;;8.27;;
9667;SDS011;4872;48.316;10.650;2023-06-22T13:21:53;13.57;;;7.53;;
9667;SDS011;4872;48.316;10.650;2023-06-22T13:24:20;13.93;;;7.35;;
9667;SDS011;4872;48.316;10.650;2023-06-22T13:26:47;12.68;;;7.40;;
9667;SDS011;4872;48.316;10.650;2023-06-22T13:29:14;13.85;;;7.10;;
9667;SDS011;4872;48.316;10.650;2023-06-22T13:31:40;13.88;;;7.75;;
9667;SDS011;4872;48.316;10.650;2023-06-22T13:34:07;13.75;;;7.68;;
9667;SDS011;4872;48.316;10.650;2023-06-22T13:36:35;14.25;;;7.18;;
9667;SDS011;4872;48.316;10.650;2023-06-22T13:39:02;12.77;;;7.30;;
9667;SDS011;4872;48.316;10.650;2023-06-22T13:41:29;13.20;;;7.95;;
9667;SDS011;4872;48.316;10.650;2023-06-22T13:43:55;14.23;;;8.27;;
9667;SDS011;4872;48.316;10.650;2023-06-22T13:46:22;12.75;;;7.18;;
9667;SDS011;4872;48.316;10.650;2023-06-22T13:48:49;11.10;;;7.13;;
9667;SDS011;4872;48.316;10.650;2023-06-22T13:51:16;14.90;;;7.68;;
9667;SDS011;4872;48.316;10.650;2023-06-22T13:53:44;12.20;;;7.85;;
9667;SDS011;4872;48.316;10.650;2023-06-22T13:56:10;14.98;;;7.30;;
9667;SDS011;4872;48.316;10.650;2023-06-22T13:58:37;15.68;;;8.75;;
9667;SDS011;4872;48.316;10.650;2023-06-22T14:01:04;17.45;;;8.30;;
9667;SDS011;4872;48.316;10.650;2023-06-22T14:03:32;14.23;;;8.00;;
9667;SDS011;4872;48.316;10.650;2023-06-22T14:06:04;14.90;;;7.32;;
9667;SDS011;4872;48.316;10.650;2023-06-22T14:08:31;11.55;;;7.75;;
9667;SDS011;4872;48.316;10.650;2023-06-22T14:10:59;13.50;;;8.40;;
9667;SDS011;4872;48.316;10.650;2023-06-22T14:13:26;16.02;;;8.60;;
9667;SDS011;4872;48.316;10.650;2023-06-22T14:15:53;15.43;;;7.75;;
9667;SDS011;4872;48.316;10.650;2023-06-22T14:18:19;15.10;;;8.25;;
9667;SDS011;4872;48.316;10.650;2023-06-22T14:20:47;11.98;;;8.60;;
9667;SDS011;4872;48.316;10.650;2023-06-22T14:23:14;15.63;;;8.77;;
9667;SDS011;4872;48.316;10.650;2023-06-22T14:25:41;13.13;;;8.38;;
9667;SDS011;4872;48.316;10.650;2023-06-22T14:28:09;15.15;;;7.85;;
9667;SDS011;4872;48.316;10.650;2023-06-22T14:30:36;15.90;;;7.78;;
9667;SDS011;4872;48.316;10.650;2023-06-22T14:33:02;13.65;;;7.57;;
9667;SDS011;4872;48.316;10.650;2023-06-22T14:35:29;11.85;;;8.00;;
9667;SDS011;4872;48.316;10.650;2023-06-22T14:37:56;11.43;;;7.63;;
9667;SDS011;4872;48.316;10.650;2023-06-22T14:40:22;14.30;;;7.95;;
9667;SDS011;4872;48.316;10.650;2023-06-22T14:42:49;13.90;;;6.97;;
9667;SDS011;4872;48.316;10.650;2023-06-22T14:45:17;11.18;;;6.70;;
9667;SDS011;4872;48.316;10.650;2023-06-22T14:47:44;12.63;;;7.05;;
9667;SDS011;4872;48.316;10.650;2023-06-22T14:50:11;13.55;;;7.53;;
9667;SDS011;4872;48.316;10.650;2023-06-22T14:52:37;13.13;;;7.47;;
9667;SDS011;4872;48.316;10.650;2023-06-22T14:55:04;15.40;;;7.82;;
9667;SDS011;4872;48.316;10.650;2023-06-22T14:57:32;12.23;;;7.68;;
9667;SDS011;4872;48.316;10.650;2023-06-22T14:59:59;13.23;;;7.55;;
9667;SDS011;4872;48.316;10.650;2023-06-22T15:02:28;21.00;;;8.20;;
9667;SDS011;4872;48.316;10.650;2023-06-22T15:04:54;13.63;;;8.05;;
9667;SDS011;4872;48.316;10.650;2023-06-22T15:07:21;17.20;;;8.95;;
9667;SDS011;4872;48.316;10.650;2023-06-22T15:09:48;10.68;;;7.70;;
9667;SDS011;4872;48.316;10.650;2023-06-22T15:12:15;17.13;;;8.02;;
9667;SDS011;4872;48.316;10.650;2023-06-22T15:14:41;11.48;;;7.40;;
9667;SDS011;4872;48.316;10.650;2023-06-22T15:17:08;9.93;;;7.53;;
9667;SDS011;4872;48.316;10.650;2023-06-22T15:19:36;13.27;;;8.02;;
9667;SDS011;4872;48.316;10.650;2023-06-22T15:22:04;12.48;;;7.80;;
9667;SDS011;4872;48.316;10.650;2023-06-22T15:24:31;16.05;;;8.13;;
9667;SDS011;4872;48.316;10.650;2023-06-22T15:26:58;12.55;;;7.55;;
9667;SDS011;4872;48.316;10.650;2023-06-22T15:29:25;14.13;;;7.43;;
9667;SDS011;4872;48.316;10.650;2023-06-22T15:31:52;14.48;;;7.85;;
9667;SDS011;4872;48.316;10.650;2023-06-22T15:34:19;13.27;;;7.47;;
9667;SDS011;4872;48.316;10.650;2023-06-22T15:36:47;9.73;;;7.28;;
9667;SDS011;4872;48.316;10.650;2023-06-22T15:39:14;16.73;;;7.57;;
9667;SDS011;4872;48.316;10.650;2023-06-22T15:41:41;14.02;;;7.28;;
9667;SDS011;4872;48.316;10.650;2023-06-22T15:44:08;14.05;;;7.32;;
9667;SDS011;4872;48.316;10.650;2023-06-22T15:46:35;13.55;;;7.53;;
9667;SDS011;4872;48.316;10.650;2023-06-22T15:49:01;12.60;;;7.72;;
9667;SDS011;4872;48.316;10.650;2023-06-22T15:51:28;17.25;;;7.75;;
9667;SDS011;4872;48.316;10.650;2023-06-22T15:53:56;17.27;;;8.13;;
9667;SDS011;4872;48.316;10.650;2023-06-22T15:56:23;13.70;;;7.65;;
9667;SDS011;4872;48.316;10.650;2023-06-22T15:58:50;14.70;;;7.07;;
9667;SDS011;4872;48.316;10.650;2023-06-22T16:01:17;18.48;;;7.63;;
9667;SDS011;4872;48.316;10.650;2023-06-22T16:03:43;12.52;;;7.50;;
9667;SDS011;4872;48.316;10.650;2023-06-22T16:06:10;15.63;;;7.70;;
9667;SDS011;4872;48.316;10.650;2023-06-22T16:08:37;13.60;;;7.35;;
9667;SDS011;4872;48.316;10.650;2023-06-22T16:11:05;14.13;;;7.03;;
9667;SDS011;4872;48.316;10.650;2023-06-22T16:13:32;12.13;;;6.75;;
9667;SDS011;4872;48.316;10.650;2023-06-22T16:15:59;12.82;;;6.90;;
9667;SDS011;4872;48.316;10.650;2023-06-22T16:18:26;10.75;;;6.72;;
9667;SDS011;4872;48.316;10.650;2023-06-22T16:20:52;15.75;;;7.68;;
9667;SDS011;4872;48.316;10.650;2023-06-22T16:23:19;12.10;;;7.40;;
9667;SDS011;4872;48.316;10.650;2023-06-22T16:25:46;15.57;;;8.68;;
9667;SDS011;4872;48.316;10.650;2023-06-22T16:28:14;15.63;;;8.65;;
9667;SDS011;4872;48.316;10.650;2023-06-22T16:30:41;20.95;;;9.77;;
9667;SDS011;4872;48.316;10.650;2023-06-22T16:33:07;15.45;;;8.95;;
9667;SDS011;4872;48.316;10.650;2023-06-22T16:35:34;16.67;;;9.02;;
9667;SDS011;4872;48.316;10.650;2023-06-22T16:38:01;19.60;;;10.38;;
9667;SDS011;4872;48.316;10.650;2023-06-22T16:40:28;17.45;;;9.00;;
9667;SDS011;4872;48.316;10.650;2023-06-22T16:42:55;15.32;;;9.18;;
9667;SDS011;4872;48.316;10.650;2023-06-22T16:45:23;15.20;;;8.00;;
9667;SDS011;4872;48.316;10.650;2023-06-22T16:47:50;11.55;;;7.63;;
9667;SDS011;4872;48.316;10.650;2023-06-22T16:50:17;15.60;;;7.97;;
9667;SDS011;4872;48.316;10.650;2023-06-22T16:52:45;15.52;;;8.40;;
9667;SDS011;4872;48.316;10.650;2023-06-22T16:55:12;12.55;;;7.45;;
9667;SDS011;4872;48.316;10.650;2023-06-22T16:57:39;18.42;;;8.90;;
9667;SDS011;4872;48.316;10.650;2023-06-22T17:00:07;17.05;;;8.43;;
9667;SDS011;4872;48.316;10.650;2023-06-22T17:02:40;17.40;;;8.18;;
9667;SDS011;4872;48.316;10.650;2023-06-22T17:05:10;16.65;;;7.55;;
9667;SDS011;4872;48.316;10.650;2023-06-22T17:07:37;17.65;;;6.65;;
9667;SDS011;4872;48.316;10.650;2023-06-22T17:10:12;14.80;;;6.30;;
9667;SDS011;4872;48.316;10.650;2023-06-22T17:12:39;10.48;;;6.32;;
9667;SDS011;4872;48.316;10.650;2023-06-22T17:15:06;16.48;;;7.15;;
9667;SDS011;4872;48.316;10.650;2023-06-22T17:17:36;13.13;;;6.75;;
9667;SDS011;4872;48.316;10.650;2023-06-22T17:20:06;14.88;;;6.72;;
9667;SDS011;4872;48.316;10.650;2023-06-22T17:22:34;11.73;;;6.93;;
9667;SDS011;4872;48.316;10.650;2023-06-22T17:25:03;12.55;;;5.95;;
9667;SDS011;4872;48.316;10.650;2023-06-22T17:27:33;16.35;;;6.72;;
9667;SDS011;4872;48.316;10.650;2023-06-22T17:30:03;14.00;;;7.22;;
9667;SDS011;4872;48.316;10.650;2023-06-22T17:32:31;11.60;;;7.55;;
9667;SDS011;4872;48.316;10.650;2023-06-22T17:34:59;12.65;;;7.25;;
9667;SDS011;4872;48.316;10.650;2023-06-22T17:37:27;13.57;;;7.57;;
9667;SDS011;4872;48.316;10.650;2023-06-22T17:39:59;16.38;;;7.15;;
9667;SDS011;4872;48.316;10.650;2023-06-22T17:42:27;14.80;;;7.40;;
9667;SDS011;4872;48.316;10.650;2023-06-22T17:44:59;12.32;;;6.78;;
9667;SDS011;4872;48.316;10.650;2023-06-22T17:47:27;14.38;;;7.38;;
9667;SDS011;4872;48.316;10.650;2023-06-22T17:50:04;15.40;;;9.10;;
9667;SDS011;4872;48.316;10.650;2023-06-22T17:52:31;18.98;;;8.27;;
9667;SDS011;4872;48.316;10.650;2023-06-22T17:54:58;17.10;;;8.05;;
9667;SDS011;4872;48.316;10.650;2023-06-22T17:57:30;16.45;;;7.85;;
9667;SDS011;4872;48.316;10.650;2023-06-22T18:00:03;12.48;;;8.23;;
9667;SDS011;4872;48.316;10.650;2023-06-22T18:02:36;14.00;;;8.13;;
9667;SDS011;4872;48.316;10.650;2023-06-22T18:05:05;16.25;;;9.15;;
9667;SDS011;4872;48.316;10.650;2023-06-22T18:07:33;15.57;;;9.15;;
9667;SDS011;4872;48.316;10.650;2023-06-22T18:10:01;14.77;;;8.55;;
9667;SDS011;4872;48.316;10.650;2023-06-22T18:12:28;15.57;;;8.70;;
9667;SDS011;4872;48.316;10.650;2023-06-22T18:14:55;14.40;;;7.60;;
9667;SDS011;4872;48.316;10.650;2023-06-22T18:17:23;18.23;;;8.70;;
9667;SDS011;4872;48.316;10.650;2023-06-22T18:19:50;16.13;;;8.77;;
9667;SDS011;4872;48.316;10.650;2023-06-22T18:22:18;14.65;;;8.07;;
9667;SDS011;4872;48.316;10.650;2023-06-22T18:24:45;13.18;;;8.57;;
9667;SDS011;4872;48.316;10.650;2023-06-22T18:27:14;13.40;;;8.23;;
9667;SDS011;4872;48.316;10.650;2023-06-22T18:29:42;14.35;;;8.43;;
9667;SDS011;4872;48.316;10.650;2023-06-22T18:32:09;13.98;;;7.90;;
9667;SDS011;4872;48.316;10.650;2023-06-22T18:34:37;13.57;;;8.03;;
9667;SDS011;4872;48.316;10.650;2023-06-22T18:37:05;15.10;;;8.40;;
9667;SDS011;4872;48.316;10.650;2023-06-22T18:39:37;14.00;;;8.20;;
9667;SDS011;4872;48.316;10.650;2023-06-22T18:42:07;13.93;;;8.07;;
9667;SDS011;4872;48.316;10.650;2023-06-22T18:44:35;14.37;;;8.77;;
9667;SDS011;4872;48.316;10.650;2023-06-22T18:47:06;15.10;;;8.23;;
9667;SDS011;4872;48.316;10.650;2023-06-22T18:49:34;13.03;;;7.80;;
9667;SDS011;4872;48.316;10.650;2023-06-22T18:52:14;16.60;;;8.00;;
9667;SDS011;4872;48.316;10.650;2023-06-22T18:54:43;13.47;;;8.23;;
9667;SDS011;4872;48.316;10.650;2023-06-22T18:57:13;14.03;;;7.60;;